sensor_id;sensor_type;location;lat;lon;timestamp;P1;durP1;ratioP1;P2;durP2;ratioP2
5967;SDS011;3010;51.028;4.170;2024-01-15T00:01:02;15.33;;;9.20;;
5967;SDS011;3010;51.028;4.170;2024-01-15T00:03:29;15.20;;;9.67;;
5967;SDS011;3010;51.028;4.170;2024-01-15T00:05:55;11.80;;;9.30;;
5967;SDS011;3010;51.028;4.170;2024-01-15T00:08:22;13.77;;;9.57;;
5967;SDS011;3010;51.028;4.170;2024-01-15T00:10:49;14.00;;;8.90;;
5967;SDS011;3010;51.028;4.170;2024-01-15T00:13:15;12.20;;;9.48;;
5967;SDS011;3010;51.028;4.170;2024-01-15T00:15:42;13.83;;;9.20;;
5967;SDS011;3010;51.028;4.170;2024-01-15T00:18:08;14.17;;;9.00;;
5967;SDS011;3010;51.028;4.170;2024-01-15T00:20:35;11.33;;;7.83;;
5967;SDS011;3010;51.028;4.170;2024-01-15T00:23:01;9.97;;;7.37;;
5967;SDS011;3010;51.028;4.170;2024-01-15T00:25:28;8.20;;;7.23;;
5967;SDS011;3010;51.028;4.170;2024-01-15T00:27:55;11.57;;;7.97;;
5967;SDS011;3010;51.028;4.170;2024-01-15T00:30:21;11.07;;;7.73;;
5967;SDS011;3010;51.028;4.170;2024-01-15T00:32:48;11.13;;;7.60;;
5967;SDS011;3010;51.028;4.170;2024-01-15T00:35:14;9.80;;;6.77;;
5967;SDS011;3010;51.028;4.170;2024-01-15T00:37:41;10.00;;;6.93;;
5967;SDS011;3010;51.028;4.170;2024-01-15T00:40:08;7.87;;;7.07;;
5967;SDS011;3010;51.028;4.170;2024-01-15T00:42:34;9.87;;;7.10;;
5967;SDS011;3010;51.028;4.170;2024-01-15T00:45:01;7.50;;;6.30;;
5967;SDS011;3010;51.028;4.170;2024-01-15T00:47:27;6.70;;;6.00;;
5967;SDS011;3010;51.028;4.170;2024-01-15T00:49:54;6.27;;;5.80;;
5967;SDS011;3010;51.028;4.170;2024-01-15T00:52:21;6.27;;;5.70;;
5967;SDS011;3010;51.028;4.170;2024-01-15T00:54:47;6.70;;;5.93;;
5967;SDS011;3010;51.028;4.170;2024-01-15T00:57:14;9.70;;;6.00;;
5967;SDS011;3010;51.028;4.170;2024-01-15T00:59:40;6.90;;;5.83;;
5967;SDS011;3010;51.028;4.170;2024-01-15T01:02:07;11.13;;;8.03;;
5967;SDS011;3010;51.028;4.170;2024-01-15T01:04:33;8.87;;;6.97;;
5967;SDS011;3010;51.028;4.170;2024-01-15T01:07:00;9.00;;;6.83;;
5967;SDS011;3010;51.028;4.170;2024-01-15T01:09:27;7.40;;;5.97;;
5967;SDS011;3010;51.028;4.170;2024-01-15T01:11:53;11.38;;;7.50;;
5967;SDS011;3010;51.028;4.170;2024-01-15T01:14:20;7.23;;;6.53;;
5967;SDS011;3010;51.028;4.170;2024-01-15T01:16:46;10.63;;;8.25;;
5967;SDS011;3010;51.028;4.170;2024-01-15T01:19:13;9.88;;;8.05;;
5967;SDS011;3010;51.028;4.170;2024-01-15T01:21:40;12.17;;;7.83;;
5967;SDS011;3010;51.028;4.170;2024-01-15T01:24:06;10.40;;;6.33;;
5967;SDS011;3010;51.028;4.170;2024-01-15T01:26:33;14.87;;;6.57;;
5967;SDS011;3010;51.028;4.170;2024-01-15T01:28:59;9.67;;;6.40;;
5967;SDS011;3010;51.028;4.170;2024-01-15T01:31:26;8.17;;;5.83;;
5967;SDS011;3010;51.028;4.170;2024-01-15T01:33:53;9.10;;;6.50;;
5967;SDS011;3010;51.028;4.170;2024-01-15T01:36:19;6.73;;;6.07;;
5967;SDS011;3010;51.028;4.170;2024-01-15T01:38:46;9.87;;;6.57;;
5967;SDS011;3010;51.028;4.170;2024-01-15T01:41:12;13.83;;;7.60;;
5967;SDS011;3010;51.028;4.170;2024-01-15T01:43:39;10.38;;;7.32;;
5967;SDS011;3010;51.028;4.170;2024-01-15T01:46:05;11.20;;;6.80;;
5967;SDS011;3010;51.028;4.170;2024-01-15T01:48:32;12.77;;;6.33;;
5967;SDS011;3010;51.028;4.170;2024-01-15T01:50:59;7.23;;;6.20;;
5967;SDS011;3010;51.028;4.170;2024-01-15T01:53:26;9.30;;;6.07;;
5967;SDS011;3010;51.028;4.170;2024-01-15T01:55:52;7.53;;;6.30;;
5967;SDS011;3010;51.028;4.170;2024-01-15T01:58:19;10.53;;;6.50;;
5967;SDS011;3010;51.028;4.170;2024-01-15T02:00:45;8.57;;;6.13;;
5967;SDS011;3010;51.028;4.170;2024-01-15T02:03:12;6.30;;;5.70;;
5967;SDS011;3010;51.028;4.170;2024-01-15T02:05:39;8.97;;;5.90;;
5967;SDS011;3010;51.028;4.170;2024-01-15T02:08:05;10.67;;;6.63;;
5967;SDS011;3010;51.028;4.170;2024-01-15T02:10:31;9.88;;;7.85;;
5967;SDS011;3010;51.028;4.170;2024-01-15T02:12:58;7.60;;;6.80;;
5967;SDS011;3010;51.028;4.170;2024-01-15T02:15:24;8.03;;;6.63;;
5967;SDS011;3010;51.028;4.170;2024-01-15T02:17:58;8.10;;;6.67;;
5967;SDS011;3010;51.028;4.170;2024-01-15T02:20:27;8.83;;;6.67;;
5967;SDS011;3010;51.028;4.170;2024-01-15T02:22:53;9.57;;;7.20;;
5967;SDS011;3010;51.028;4.170;2024-01-15T02:25:20;9.65;;;8.35;;
5967;SDS011;3010;51.028;4.170;2024-01-15T02:27:46;9.40;;;7.23;;
5967;SDS011;3010;51.028;4.170;2024-01-15T02:30:13;10.90;;;7.37;;
5967;SDS011;3010;51.028;4.170;2024-01-15T02:32:39;12.53;;;7.70;;
5967;SDS011;3010;51.028;4.170;2024-01-15T02:35:06;10.10;;;7.53;;
5967;SDS011;3010;51.028;4.170;2024-01-15T02:37:33;8.10;;;6.80;;
5967;SDS011;3010;51.028;4.170;2024-01-15T02:40:00;11.53;;;8.33;;
5967;SDS011;3010;51.028;4.170;2024-01-15T02:42:26;11.40;;;7.30;;
5967;SDS011;3010;51.028;4.170;2024-01-15T02:44:53;14.20;;;7.23;;
5967;SDS011;3010;51.028;4.170;2024-01-15T02:47:19;10.47;;;7.10;;
5967;SDS011;3010;51.028;4.170;2024-01-15T02:49:46;11.37;;;7.47;;
5967;SDS011;3010;51.028;4.170;2024-01-15T02:52:13;8.80;;;6.90;;
5967;SDS011;3010;51.028;4.170;2024-01-15T02:54:39;9.43;;;7.13;;
5967;SDS011;3010;51.028;4.170;2024-01-15T02:57:06;10.97;;;7.37;;
5967;SDS011;3010;51.028;4.170;2024-01-15T02:59:32;10.97;;;7.50;;
5967;SDS011;3010;51.028;4.170;2024-01-15T03:01:59;10.40;;;7.40;;
5967;SDS011;3010;51.028;4.170;2024-01-15T03:04:25;10.63;;;7.37;;
5967;SDS011;3010;51.028;4.170;2024-01-15T03:06:52;11.93;;;8.10;;
5967;SDS011;3010;51.028;4.170;2024-01-15T03:09:19;10.83;;;7.47;;
5967;SDS011;3010;51.028;4.170;2024-01-15T03:11:45;11.25;;;8.40;;
5967;SDS011;3010;51.028;4.170;2024-01-15T03:14:12;8.70;;;6.80;;
5967;SDS011;3010;51.028;4.170;2024-01-15T03:16:38;10.95;;;7.90;;
5967;SDS011;3010;51.028;4.170;2024-01-15T03:19:05;7.80;;;6.40;;
5967;SDS011;3010;51.028;4.170;2024-01-15T03:21:32;6.80;;;6.17;;
5967;SDS011;3010;51.028;4.170;2024-01-15T03:23:58;7.30;;;6.60;;
5967;SDS011;3010;51.028;4.170;2024-01-15T03:26:25;8.48;;;7.37;;
5967;SDS011;3010;51.028;4.170;2024-01-15T03:28:51;8.10;;;7.30;;
5967;SDS011;3010;51.028;4.170;2024-01-15T03:31:18;9.10;;;6.17;;
5967;SDS011;3010;51.028;4.170;2024-01-15T03:33:44;14.60;;;6.70;;
5967;SDS011;3010;51.028;4.170;2024-01-15T03:36:11;8.00;;;6.27;;
5967;SDS011;3010;51.028;4.170;2024-01-15T03:38:41;7.83;;;5.97;;
5967;SDS011;3010;51.028;4.170;2024-01-15T03:41:07;12.97;;;8.00;;
5967;SDS011;3010;51.028;4.170;2024-01-15T03:43:34;9.07;;;6.60;;
5967;SDS011;3010;51.028;4.170;2024-01-15T03:46:00;7.50;;;6.50;;
5967;SDS011;3010;51.028;4.170;2024-01-15T03:48:27;9.03;;;6.60;;
5967;SDS011;3010;51.028;4.170;2024-01-15T03:50:53;9.10;;;6.60;;
5967;SDS011;3010;51.028;4.170;2024-01-15T03:53:20;9.43;;;6.67;;
5967;SDS011;3010;51.028;4.170;2024-01-15T03:55:47;9.05;;;7.32;;
5967;SDS011;3010;51.028;4.170;2024-01-15T03:58:13;9.73;;;7.10;;
5967;SDS011;3010;51.028;4.170;2024-01-15T04:00:40;7.63;;;6.63;;
5967;SDS011;3010;51.028;4.170;2024-01-15T04:03:06;7.67;;;7.07;;
5967;SDS011;3010;51.028;4.170;2024-01-15T04:05:33;11.27;;;6.40;;
5967;SDS011;3010;51.028;4.170;2024-01-15T04:08:00;13.45;;;8.27;;
5967;SDS011;3010;51.028;4.170;2024-01-15T04:10:26;7.70;;;7.00;;
5967;SDS011;3010;51.028;4.170;2024-01-15T04:12:53;7.10;;;6.40;;
5967;SDS011;3010;51.028;4.170;2024-01-15T04:15:19;8.50;;;6.83;;
5967;SDS011;3010;51.028;4.170;2024-01-15T04:17:46;7.57;;;6.00;;
5967;SDS011;3010;51.028;4.170;2024-01-15T04:20:12;16.10;;;6.57;;
5967;SDS011;3010;51.028;4.170;2024-01-15T04:22:39;10.15;;;7.72;;
5967;SDS011;3010;51.028;4.170;2024-01-15T04:25:06;7.97;;;6.20;;
5967;SDS011;3010;51.028;4.170;2024-01-15T04:27:32;8.93;;;6.80;;
5967;SDS011;3010;51.028;4.170;2024-01-15T04:29:59;7.13;;;6.47;;
5967;SDS011;3010;51.028;4.170;2024-01-15T04:32:25;17.73;;;7.90;;
5967;SDS011;3010;51.028;4.170;2024-01-15T04:34:52;10.17;;;6.13;;
5967;SDS011;3010;51.028;4.170;2024-01-15T04:37:19;9.97;;;6.33;;
5967;SDS011;3010;51.028;4.170;2024-01-15T04:39:45;12.80;;;5.20;;
5967;SDS011;3010;51.028;4.170;2024-01-15T04:42:12;8.73;;;5.40;;
5967;SDS011;3010;51.028;4.170;2024-01-15T04:44:38;10.87;;;5.10;;
5967;SDS011;3010;51.028;4.170;2024-01-15T04:47:05;7.13;;;5.77;;
5967;SDS011;3010;51.028;4.170;2024-01-15T04:49:31;7.60;;;5.27;;
5967;SDS011;3010;51.028;4.170;2024-01-15T04:51:58;8.83;;;5.67;;
5967;SDS011;3010;51.028;4.170;2024-01-15T04:54:25;8.77;;;5.50;;
5967;SDS011;3010;51.028;4.170;2024-01-15T04:56:51;8.40;;;5.10;;
5967;SDS011;3010;51.028;4.170;2024-01-15T04:59:18;8.67;;;5.13;;
5967;SDS011;3010;51.028;4.170;2024-01-15T05:01:44;10.88;;;5.00;;
5967;SDS011;3010;51.028;4.170;2024-01-15T05:04:11;9.10;;;5.07;;
5967;SDS011;3010;51.028;4.170;2024-01-15T05:06:38;12.10;;;5.40;;
5967;SDS011;3010;51.028;4.170;2024-01-15T05:09:04;13.30;;;4.63;;
5967;SDS011;3010;51.028;4.170;2024-01-15T05:11:31;5.23;;;3.90;;
5967;SDS011;3010;51.028;4.170;2024-01-15T05:13:57;6.70;;;4.10;;
5967;SDS011;3010;51.028;4.170;2024-01-15T05:16:24;5.97;;;4.03;;
5967;SDS011;3010;51.028;4.170;2024-01-15T05:18:50;7.60;;;3.93;;
5967;SDS011;3010;51.028;4.170;2024-01-15T05:21:17;6.90;;;3.77;;
5967;SDS011;3010;51.028;4.170;2024-01-15T05:23:44;3.87;;;3.47;;
5967;SDS011;3010;51.028;4.170;2024-01-15T05:26:10;4.27;;;3.33;;
5967;SDS011;3010;51.028;4.170;2024-01-15T05:28:37;5.93;;;3.73;;
5967;SDS011;3010;51.028;4.170;2024-01-15T05:31:03;10.57;;;3.60;;
5967;SDS011;3010;51.028;4.170;2024-01-15T05:33:30;8.13;;;3.43;;
5967;SDS011;3010;51.028;4.170;2024-01-15T05:35:57;6.13;;;3.93;;
5967;SDS011;3010;51.028;4.170;2024-01-15T05:38:23;7.50;;;4.10;;
5967;SDS011;3010;51.028;4.170;2024-01-15T05:40:50;11.53;;;4.30;;
5967;SDS011;3010;51.028;4.170;2024-01-15T05:43:16;8.10;;;3.83;;
5967;SDS011;3010;51.028;4.170;2024-01-15T05:45:43;13.57;;;3.73;;
5967;SDS011;3010;51.028;4.170;2024-01-15T05:48:10;5.33;;;3.10;;
5967;SDS011;3010;51.028;4.170;2024-01-15T05:50:36;6.53;;;3.90;;
5967;SDS011;3010;51.028;4.170;2024-01-15T05:53:03;3.83;;;3.50;;
5967;SDS011;3010;51.028;4.170;2024-01-15T05:55:29;7.23;;;3.97;;
5967;SDS011;3010;51.028;4.170;2024-01-15T05:57:56;6.00;;;3.90;;
5967;SDS011;3010;51.028;4.170;2024-01-15T06:00:22;5.17;;;3.50;;
5967;SDS011;3010;51.028;4.170;2024-01-15T06:02:49;8.80;;;4.43;;
5967;SDS011;3010;51.028;4.170;2024-01-15T06:05:16;8.23;;;4.47;;
5967;SDS011;3010;51.028;4.170;2024-01-15T06:07:42;8.45;;;4.87;;
5967;SDS011;3010;51.028;4.170;2024-01-15T06:10:09;9.07;;;5.10;;
5967;SDS011;3010;51.028;4.170;2024-01-15T06:12:35;9.65;;;5.22;;
5967;SDS011;3010;51.028;4.170;2024-01-15T06:15:02;12.77;;;4.93;;
5967;SDS011;3010;51.028;4.170;2024-01-15T06:17:28;7.80;;;3.67;;
5967;SDS011;3010;51.028;4.170;2024-01-15T06:19:55;5.20;;;4.10;;
5967;SDS011;3010;51.028;4.170;2024-01-15T06:22:22;12.13;;;4.63;;
5967;SDS011;3010;51.028;4.170;2024-01-15T06:24:48;5.78;;;4.20;;
5967;SDS011;3010;51.028;4.170;2024-01-15T06:27:15;5.87;;;3.80;;
5967;SDS011;3010;51.028;4.170;2024-01-15T06:29:44;7.87;;;3.90;;
5967;SDS011;3010;51.028;4.170;2024-01-15T06:32:08;9.10;;;3.90;;
5967;SDS011;3010;51.028;4.170;2024-01-15T06:34:35;5.40;;;4.87;;
5967;SDS011;3010;51.028;4.170;2024-01-15T06:37:01;8.87;;;5.30;;
5967;SDS011;3010;51.028;4.170;2024-01-15T06:39:28;10.37;;;4.90;;
5967;SDS011;3010;51.028;4.170;2024-01-15T06:41:55;11.27;;;5.10;;
5967;SDS011;3010;51.028;4.170;2024-01-15T06:44:21;10.37;;;5.10;;
5967;SDS011;3010;51.028;4.170;2024-01-15T06:46:48;9.30;;;4.87;;
5967;SDS011;3010;51.028;4.170;2024-01-15T06:49:14;13.98;;;5.50;;
5967;SDS011;3010;51.028;4.170;2024-01-15T06:51:41;7.13;;;5.13;;
5967;SDS011;3010;51.028;4.170;2024-01-15T06:54:07;11.87;;;5.20;;
5967;SDS011;3010;51.028;4.170;2024-01-15T06:56:34;9.03;;;5.60;;
5967;SDS011;3010;51.028;4.170;2024-01-15T06:59:01;6.50;;;4.70;;
5967;SDS011;3010;51.028;4.170;2024-01-15T07:01:27;5.50;;;3.90;;
5967;SDS011;3010;51.028;4.170;2024-01-15T07:03:54;5.90;;;4.33;;
5967;SDS011;3010;51.028;4.170;2024-01-15T07:06:20;9.67;;;5.00;;
5967;SDS011;3010;51.028;4.170;2024-01-15T07:08:47;7.73;;;4.17;;
5967;SDS011;3010;51.028;4.170;2024-01-15T07:11:13;6.87;;;3.70;;
5967;SDS011;3010;51.028;4.170;2024-01-15T07:13:40;6.43;;;4.17;;
5967;SDS011;3010;51.028;4.170;2024-01-15T07:16:07;5.30;;;4.73;;
5967;SDS011;3010;51.028;4.170;2024-01-15T07:18:33;7.37;;;5.03;;
5967;SDS011;3010;51.028;4.170;2024-01-15T07:21:00;7.87;;;5.27;;
5967;SDS011;3010;51.028;4.170;2024-01-15T07:23:26;5.70;;;4.53;;
5967;SDS011;3010;51.028;4.170;2024-01-15T07:25:53;10.80;;;4.30;;
5967;SDS011;3010;51.028;4.170;2024-01-15T07:28:20;13.73;;;5.13;;
5967;SDS011;3010;51.028;4.170;2024-01-15T07:30:46;6.90;;;3.90;;
5967;SDS011;3010;51.028;4.170;2024-01-15T07:33:13;9.60;;;4.63;;
5967;SDS011;3010;51.028;4.170;2024-01-15T07:35:39;14.33;;;5.23;;
5967;SDS011;3010;51.028;4.170;2024-01-15T07:38:06;12.37;;;5.10;;
5967;SDS011;3010;51.028;4.170;2024-01-15T07:40:33;12.47;;;4.87;;
5967;SDS011;3010;51.028;4.170;2024-01-15T07:42:59;16.90;;;5.40;;
5967;SDS011;3010;51.028;4.170;2024-01-15T07:45:26;9.50;;;5.17;;
5967;SDS011;3010;51.028;4.170;2024-01-15T07:47:52;8.95;;;4.75;;
5967;SDS011;3010;51.028;4.170;2024-01-15T07:50:19;6.60;;;3.90;;
5967;SDS011;3010;51.028;4.170;2024-01-15T07:52:45;5.67;;;3.70;;
5967;SDS011;3010;51.028;4.170;2024-01-15T07:55:12;4.53;;;4.10;;
5967;SDS011;3010;51.028;4.170;2024-01-15T07:57:39;8.90;;;4.57;;
5967;SDS011;3010;51.028;4.170;2024-01-15T08:00:05;6.63;;;4.10;;
5967;SDS011;3010;51.028;4.170;2024-01-15T08:02:32;10.43;;;4.87;;
5967;SDS011;3010;51.028;4.170;2024-01-15T08:04:59;8.97;;;3.97;;
5967;SDS011;3010;51.028;4.170;2024-01-15T08:07:25;8.70;;;3.70;;
5967;SDS011;3010;51.028;4.170;2024-01-15T08:09:52;8.00;;;4.30;;
5967;SDS011;3010;51.028;4.170;2024-01-15T08:12:18;4.17;;;3.83;;
5967;SDS011;3010;51.028;4.170;2024-01-15T08:14:45;7.53;;;4.03;;
5967;SDS011;3010;51.028;4.170;2024-01-15T08:17:11;5.40;;;3.83;;
5967;SDS011;3010;51.028;4.170;2024-01-15T08:19:38;8.20;;;3.93;;
5967;SDS011;3010;51.028;4.170;2024-01-15T08:22:05;7.33;;;3.87;;
5967;SDS011;3010;51.028;4.170;2024-01-15T08:24:31;6.00;;;3.50;;
5967;SDS011;3010;51.028;4.170;2024-01-15T08:26:58;7.47;;;3.93;;
5967;SDS011;3010;51.028;4.170;2024-01-15T08:29:24;5.93;;;3.40;;
5967;SDS011;3010;51.028;4.170;2024-01-15T08:31:51;4.53;;;3.10;;
5967;SDS011;3010;51.028;4.170;2024-01-15T08:34:18;7.37;;;3.33;;
5967;SDS011;3010;51.028;4.170;2024-01-15T08:36:44;5.63;;;3.60;;
5967;SDS011;3010;51.028;4.170;2024-01-15T08:39:11;4.13;;;3.67;;
5967;SDS011;3010;51.028;4.170;2024-01-15T08:41:37;8.23;;;3.40;;
5967;SDS011;3010;51.028;4.170;2024-01-15T08:44:04;8.53;;;4.00;;
5967;SDS011;3010;51.028;4.170;2024-01-15T08:46:31;6.18;;;3.92;;
5967;SDS011;3010;51.028;4.170;2024-01-15T08:48:57;8.93;;;3.93;;
5967;SDS011;3010;51.028;4.170;2024-01-15T08:51:24;7.73;;;3.47;;
5967;SDS011;3010;51.028;4.170;2024-01-15T08:53:50;8.73;;;3.50;;
5967;SDS011;3010;51.028;4.170;2024-01-15T08:56:17;6.23;;;3.70;;
5967;SDS011;3010;51.028;4.170;2024-01-15T08:58:44;6.37;;;3.63;;
5967;SDS011;3010;51.028;4.170;2024-01-15T09:01:10;6.27;;;3.80;;
5967;SDS011;3010;51.028;4.170;2024-01-15T09:03:37;10.70;;;3.73;;
5967;SDS011;3010;51.028;4.170;2024-01-15T09:06:03;5.00;;;3.30;;
5967;SDS011;3010;51.028;4.170;2024-01-15T09:08:30;6.77;;;4.10;;
5967;SDS011;3010;51.028;4.170;2024-01-15T09:10:57;7.60;;;3.25;;
5967;SDS011;3010;51.028;4.170;2024-01-15T09:13:23;7.67;;;3.43;;
5967;SDS011;3010;51.028;4.170;2024-01-15T09:15:50;8.03;;;3.40;;
5967;SDS011;3010;51.028;4.170;2024-01-15T09:18:16;7.33;;;3.50;;
5967;SDS011;3010;51.028;4.170;2024-01-15T09:20:43;10.20;;;2.97;;
5967;SDS011;3010;51.028;4.170;2024-01-15T09:23:10;8.23;;;3.80;;
5967;SDS011;3010;51.028;4.170;2024-01-15T09:25:36;7.77;;;3.90;;
5967;SDS011;3010;51.028;4.170;2024-01-15T09:28:03;4.90;;;3.00;;
5967;SDS011;3010;51.028;4.170;2024-01-15T09:30:29;7.30;;;3.53;;
5967;SDS011;3010;51.028;4.170;2024-01-15T09:32:56;4.63;;;3.40;;
5967;SDS011;3010;51.028;4.170;2024-01-15T09:35:22;8.70;;;3.50;;
5967;SDS011;3010;51.028;4.170;2024-01-15T09:37:49;8.23;;;3.40;;
5967;SDS011;3010;51.028;4.170;2024-01-15T09:40:16;3.03;;;2.80;;
5967;SDS011;3010;51.028;4.170;2024-01-15T09:42:42;5.50;;;3.37;;
5967;SDS011;3010;51.028;4.170;2024-01-15T09:45:09;7.07;;;3.77;;
5967;SDS011;3010;51.028;4.170;2024-01-15T09:47:36;7.55;;;3.22;;
5967;SDS011;3010;51.028;4.170;2024-01-15T09:50:02;9.03;;;3.10;;
5967;SDS011;3010;51.028;4.170;2024-01-15T09:52:29;11.10;;;3.10;;
5967;SDS011;3010;51.028;4.170;2024-01-15T09:54:55;4.97;;;3.10;;
5967;SDS011;3010;51.028;4.170;2024-01-15T09:57:22;7.37;;;2.93;;
5967;SDS011;3010;51.028;4.170;2024-01-15T09:59:48;5.87;;;3.10;;
5967;SDS011;3010;51.028;4.170;2024-01-15T10:02:15;4.97;;;3.30;;
5967;SDS011;3010;51.028;4.170;2024-01-15T10:04:41;7.97;;;4.40;;
5967;SDS011;3010;51.028;4.170;2024-01-15T10:07:08;5.95;;;3.50;;
5967;SDS011;3010;51.028;4.170;2024-01-15T10:09:35;6.63;;;3.63;;
5967;SDS011;3010;51.028;4.170;2024-01-15T10:12:01;6.87;;;3.30;;
5967;SDS011;3010;51.028;4.170;2024-01-15T10:14:28;8.73;;;3.77;;
5967;SDS011;3010;51.028;4.170;2024-01-15T10:16:54;9.67;;;2.97;;
5967;SDS011;3010;51.028;4.170;2024-01-15T10:19:21;6.60;;;3.70;;
5967;SDS011;3010;51.028;4.170;2024-01-15T10:21:47;5.30;;;3.03;;
5967;SDS011;3010;51.028;4.170;2024-01-15T10:24:14;7.67;;;3.00;;
5967;SDS011;3010;51.028;4.170;2024-01-15T10:26:41;8.03;;;2.80;;
5967;SDS011;3010;51.028;4.170;2024-01-15T10:29:07;5.53;;;2.83;;
5967;SDS011;3010;51.028;4.170;2024-01-15T10:31:34;8.40;;;3.13;;
5967;SDS011;3010;51.028;4.170;2024-01-15T10:34:19;8.37;;;2.67;;
5967;SDS011;3010;51.028;4.170;2024-01-15T10:36:30;3.77;;;2.60;;
5967;SDS011;3010;51.028;4.170;2024-01-15T10:38:57;11.40;;;4.20;;
5967;SDS011;3010;51.028;4.170;2024-01-15T10:41:23;9.50;;;3.13;;
5967;SDS011;3010;51.028;4.170;2024-01-15T10:43:50;7.90;;;3.20;;
5967;SDS011;3010;51.028;4.170;2024-01-15T10:46:16;4.37;;;2.70;;
5967;SDS011;3010;51.028;4.170;2024-01-15T10:48:43;5.43;;;2.50;;
5967;SDS011;3010;51.028;4.170;2024-01-15T10:51:10;10.20;;;2.70;;
5967;SDS011;3010;51.028;4.170;2024-01-15T10:53:40;6.50;;;3.07;;
5967;SDS011;3010;51.028;4.170;2024-01-15T10:56:03;6.73;;;2.90;;
5967;SDS011;3010;51.028;4.170;2024-01-15T10:58:29;4.93;;;2.70;;
5967;SDS011;3010;51.028;4.170;2024-01-15T11:00:56;7.77;;;2.50;;
5967;SDS011;3010;51.028;4.170;2024-01-15T11:03:23;6.67;;;2.50;;
5967;SDS011;3010;51.028;4.170;2024-01-15T11:05:49;7.07;;;3.03;;
5967;SDS011;3010;51.028;4.170;2024-01-15T11:08:16;2.80;;;2.23;;
5967;SDS011;3010;51.028;4.170;2024-01-15T11:10:43;5.07;;;2.73;;
5967;SDS011;3010;51.028;4.170;2024-01-15T11:16:00;4.60;;;2.83;;
5967;SDS011;3010;51.028;4.170;2024-01-15T11:18:26;4.53;;;2.17;;
5967;SDS011;3010;51.028;4.170;2024-01-15T11:23:46;3.70;;;2.43;;
5967;SDS011;3010;51.028;4.170;2024-01-15T11:28:56;5.30;;;1.97;;
5967;SDS011;3010;51.028;4.170;2024-01-15T11:31:29;6.50;;;2.80;;
5967;SDS011;3010;51.028;4.170;2024-01-15T11:34:07;5.77;;;2.67;;
5967;SDS011;3010;51.028;4.170;2024-01-15T11:41:56;5.60;;;2.50;;
5967;SDS011;3010;51.028;4.170;2024-01-15T11:44:23;5.70;;;2.50;;
5967;SDS011;3010;51.028;4.170;2024-01-15T11:46:57;5.80;;;2.22;;
5967;SDS011;3010;51.028;4.170;2024-01-15T11:49:17;5.70;;;2.27;;
5967;SDS011;3010;51.028;4.170;2024-01-15T11:51:42;5.93;;;3.10;;
5967;SDS011;3010;51.028;4.170;2024-01-15T11:54:09;7.67;;;2.50;;
5967;SDS011;3010;51.028;4.170;2024-01-15T11:56:35;2.77;;;2.23;;
5967;SDS011;3010;51.028;4.170;2024-01-15T11:59:02;1.90;;;1.80;;
5967;SDS011;3010;51.028;4.170;2024-01-15T12:01:29;6.63;;;3.03;;
5967;SDS011;3010;51.028;4.170;2024-01-15T12:03:55;4.47;;;2.30;;
5967;SDS011;3010;51.028;4.170;2024-01-15T12:06:22;7.47;;;2.30;;
5967;SDS011;3010;51.028;4.170;2024-01-15T12:08:48;3.80;;;2.37;;
5967;SDS011;3010;51.028;4.170;2024-01-15T12:11:15;5.83;;;2.23;;
5967;SDS011;3010;51.028;4.170;2024-01-15T12:13:42;7.10;;;2.80;;
5967;SDS011;3010;51.028;4.170;2024-01-15T12:16:08;7.17;;;2.37;;
5967;SDS011;3010;51.028;4.170;2024-01-15T12:18:35;7.30;;;3.37;;
5967;SDS011;3010;51.028;4.170;2024-01-15T12:21:01;3.00;;;2.77;;
5967;SDS011;3010;51.028;4.170;2024-01-15T12:23:28;7.10;;;3.20;;
5967;SDS011;3010;51.028;4.170;2024-01-15T12:25:54;4.47;;;4.07;;
5967;SDS011;3010;51.028;4.170;2024-01-15T12:28:21;7.53;;;4.00;;
5967;SDS011;3010;51.028;4.170;2024-01-15T12:30:48;3.70;;;3.00;;
5967;SDS011;3010;51.028;4.170;2024-01-15T12:33:14;8.47;;;2.90;;
5967;SDS011;3010;51.028;4.170;2024-01-15T12:35:41;6.63;;;3.00;;
5967;SDS011;3010;51.028;4.170;2024-01-15T12:38:07;5.23;;;2.77;;
5967;SDS011;3010;51.028;4.170;2024-01-15T12:40:34;10.70;;;3.03;;
5967;SDS011;3010;51.028;4.170;2024-01-15T12:43:01;6.85;;;3.00;;
5967;SDS011;3010;51.028;4.170;2024-01-15T12:45:27;9.40;;;3.20;;
5967;SDS011;3010;51.028;4.170;2024-01-15T12:47:54;5.10;;;2.60;;
5967;SDS011;3010;51.028;4.170;2024-01-15T12:50:23;6.87;;;2.17;;
5967;SDS011;3010;51.028;4.170;2024-01-15T12:52:47;9.90;;;3.22;;
5967;SDS011;3010;51.028;4.170;2024-01-15T12:55:14;6.43;;;2.90;;
5967;SDS011;3010;51.028;4.170;2024-01-15T12:57:40;10.20;;;3.20;;
5967;SDS011;3010;51.028;4.170;2024-01-15T13:00:07;9.43;;;3.07;;
5967;SDS011;3010;51.028;4.170;2024-01-15T13:02:34;6.93;;;2.90;;
5967;SDS011;3010;51.028;4.170;2024-01-15T13:05:00;5.47;;;2.80;;
5967;SDS011;3010;51.028;4.170;2024-01-15T13:07:27;6.53;;;3.17;;
5967;SDS011;3010;51.028;4.170;2024-01-15T13:09:53;7.97;;;2.93;;
5967;SDS011;3010;51.028;4.170;2024-01-15T13:12:20;6.90;;;3.13;;
5967;SDS011;3010;51.028;4.170;2024-01-15T13:14:46;6.37;;;2.50;;
5967;SDS011;3010;51.028;4.170;2024-01-15T13:17:13;4.63;;;2.27;;
5967;SDS011;3010;51.028;4.170;2024-01-15T13:19:42;3.17;;;2.60;;
5967;SDS011;3010;51.028;4.170;2024-01-15T13:22:09;7.30;;;2.37;;
5967;SDS011;3010;51.028;4.170;2024-01-15T13:24:35;3.50;;;2.20;;
5967;SDS011;3010;51.028;4.170;2024-01-15T13:27:02;3.40;;;2.10;;
5967;SDS011;3010;51.028;4.170;2024-01-15T13:29:28;3.07;;;2.00;;
5967;SDS011;3010;51.028;4.170;2024-01-15T13:31:55;3.37;;;2.03;;
5967;SDS011;3010;51.028;4.170;2024-01-15T13:34:22;3.10;;;1.33;;
5967;SDS011;3010;51.028;4.170;2024-01-15T13:36:48;6.00;;;5.50;;
5967;SDS011;3010;51.028;4.170;2024-01-15T13:39:15;3.17;;;2.87;;
5967;SDS011;3010;51.028;4.170;2024-01-15T13:41:41;8.10;;;6.40;;
5967;SDS011;3010;51.028;4.170;2024-01-15T13:44:08;5.05;;;4.55;;
5967;SDS011;3010;51.028;4.170;2024-01-15T13:46:34;6.00;;;4.10;;
5967;SDS011;3010;51.028;4.170;2024-01-15T13:49:01;5.40;;;4.57;;
5967;SDS011;3010;51.028;4.170;2024-01-15T13:51:28;4.77;;;4.47;;
5967;SDS011;3010;51.028;4.170;2024-01-15T13:53:54;7.40;;;6.05;;
5967;SDS011;3010;51.028;4.170;2024-01-15T13:56:21;6.53;;;3.67;;
5967;SDS011;3010;51.028;4.170;2024-01-15T13:58:47;7.77;;;4.57;;
5967;SDS011;3010;51.028;4.170;2024-01-15T14:01:14;7.43;;;3.80;;
5967;SDS011;3010;51.028;4.170;2024-01-15T14:03:41;5.93;;;3.33;;
5967;SDS011;3010;51.028;4.170;2024-01-15T14:06:07;7.03;;;2.90;;
5967;SDS011;3010;51.028;4.170;2024-01-15T14:08:34;4.43;;;3.77;;
5967;SDS011;3010;51.028;4.170;2024-01-15T14:11:00;6.17;;;2.70;;
5967;SDS011;3010;51.028;4.170;2024-01-15T14:13:27;3.37;;;2.93;;
5967;SDS011;3010;51.028;4.170;2024-01-15T14:15:53;2.63;;;2.00;;
5967;SDS011;3010;51.028;4.170;2024-01-15T14:18:20;3.80;;;2.10;;
5967;SDS011;3010;51.028;4.170;2024-01-15T14:20:47;4.55;;;2.47;;
5967;SDS011;3010;51.028;4.170;2024-01-15T14:23:13;4.67;;;2.60;;
5967;SDS011;3010;51.028;4.170;2024-01-15T14:25:40;6.68;;;3.08;;
5967;SDS011;3010;51.028;4.170;2024-01-15T14:28:06;4.90;;;3.10;;
5967;SDS011;3010;51.028;4.170;2024-01-15T14:30:33;6.33;;;3.43;;
5967;SDS011;3010;51.028;4.170;2024-01-15T14:33:00;8.65;;;3.67;;
5967;SDS011;3010;51.028;4.170;2024-01-15T14:35:26;9.90;;;4.03;;
5967;SDS011;3010;51.028;4.170;2024-01-15T14:37:53;7.20;;;3.27;;
5967;SDS011;3010;51.028;4.170;2024-01-15T14:40:19;9.93;;;3.23;;
5967;SDS011;3010;51.028;4.170;2024-01-15T14:42:46;8.60;;;3.10;;
5967;SDS011;3010;51.028;4.170;2024-01-15T14:45:12;5.70;;;2.60;;
5967;SDS011;3010;51.028;4.170;2024-01-15T14:47:39;4.03;;;2.50;;
5967;SDS011;3010;51.028;4.170;2024-01-15T14:50:06;6.10;;;2.30;;
5967;SDS011;3010;51.028;4.170;2024-01-15T14:52:32;3.70;;;2.13;;
5967;SDS011;3010;51.028;4.170;2024-01-15T14:54:59;6.40;;;2.50;;
5967;SDS011;3010;51.028;4.170;2024-01-15T14:57:26;5.47;;;2.53;;
5967;SDS011;3010;51.028;4.170;2024-01-15T14:59:52;4.87;;;3.17;;
5967;SDS011;3010;51.028;4.170;2024-01-15T15:02:19;7.90;;;3.50;;
5967;SDS011;3010;51.028;4.170;2024-01-15T15:04:45;4.63;;;3.10;;
5967;SDS011;3010;51.028;4.170;2024-01-15T15:07:12;8.90;;;3.30;;
5967;SDS011;3010;51.028;4.170;2024-01-15T15:09:39;4.60;;;2.63;;
5967;SDS011;3010;51.028;4.170;2024-01-15T15:12:05;6.97;;;3.57;;
5967;SDS011;3010;51.028;4.170;2024-01-15T15:14:32;8.87;;;3.27;;
5967;SDS011;3010;51.028;4.170;2024-01-15T15:16:58;4.67;;;2.60;;
5967;SDS011;3010;51.028;4.170;2024-01-15T15:19:25;5.13;;;2.90;;
5967;SDS011;3010;51.028;4.170;2024-01-15T15:21:51;6.77;;;3.10;;